Time;durP1;ratioP1;P1;durP2;ratioP2;P2;SDS_P1;SDS_P2;PMS_P1;PMS_P2;Temp;Humidity;BMP_temperature;BMP_pressure;BME280_temperature;BME280_humidity;BME280_pressure;Samples;Min_cycle;Max_cycle;Signal;HPM_P1;HPM_P2
2023/10/31 00:01:50;;;;;;;17.25;7.47;;;13.20;99.90;;;;;;4965164;28;20042;-72
2023/10/31 00:04:16;;;;;;;13.60;6.70;;;13.30;99.90;;;;;;4966297;28;20100;-72
2023/10/31 00:06:41;;;;;;;12.85;7.35;;;13.20;99.90;;;;;;4965493;28;20046;-70
2023/10/31 00:09:07;;;;;;;14.73;7.25;;;13.20;99.90;;;;;;4966643;28;20102;-71
2023/10/31 00:11:33;;;;;;;10.90;7.38;;;13.20;99.90;;;;;;4965496;28;20058;-71
2023/10/31 00:13:59;;;;;;;15.35;8.35;;;13.20;99.90;;;;;;4964095;28;20105;-71
2023/10/31 00:16:25;;;;;;;15.15;9.23;;;13.30;99.90;;;;;;4969548;28;20504;-72
2023/10/31 00:18:50;;;;;;;14.60;8.88;;;13.30;99.90;;;;;;4967622;28;20885;-70
2023/10/31 00:21:16;;;;;;;15.20;9.05;;;13.30;99.90;;;;;;4968728;28;20034;-73
2023/10/31 00:23:49;;;;;;;16.60;9.73;;;13.30;99.90;;;;;;4969327;28;20034;-75
2023/10/31 00:26:14;;;;;;;;;;;13.30;99.90;;;;;;4966118;28;20023;-71
2023/10/31 00:28:40;;;;;;;19.95;10.60;;;13.30;99.90;;;;;;4970265;28;19925;-74
2023/10/31 00:31:07;;;;;;;19.80;11.48;;;13.40;99.90;;;;;;4965762;28;20491;-69
2023/10/31 00:33:36;;;;;;;21.42;14.02;;;13.30;99.90;;;;;;4969680;28;20033;-70
2023/10/31 00:36:02;;;;;;;21.83;12.80;;;13.30;99.90;;;;;;4969037;28;20030;-70
2023/10/31 00:38:28;;;;;;;22.75;13.80;;;13.30;99.90;;;;;;4969390;28;20420;-70
2023/10/31 00:40:54;;;;;;;23.48;13.80;;;13.30;99.90;;;;;;4969692;28;20030;-70
2023/10/31 00:43:19;;;;;;;21.50;13.00;;;13.30;99.90;;;;;;4969004;28;20038;-70
2023/10/31 00:45:45;;;;;;;27.75;15.57;;;13.30;99.90;;;;;;4967993;28;20019;-70
2023/10/31 00:48:11;;;;;;;21.77;14.55;;;13.30;99.90;;;;;;4969272;28;20050;-70
2023/10/31 00:50:36;;;;;;;26.10;16.17;;;13.20;99.90;;;;;;4969584;28;20385;-69
2023/10/31 00:53:02;;;;;;;27.08;15.65;;;13.20;99.90;;;;;;4966069;28;20030;-74
2023/10/31 00:55:27;;;;;;;30.05;17.80;;;13.20;99.90;;;;;;4968175;28;20054;-70
2023/10/31 00:57:53;;;;;;;25.83;16.67;;;13.20;99.90;;;;;;4968549;28;20100;-71
2023/10/31 01:00:19;;;;;;;36.78;18.48;;;13.20;99.90;;;;;;4968820;28;20030;-69
2023/10/31 01:02:45;;;;;;;29.40;18.00;;;13.20;99.90;;;;;;4969014;28;20046;-73
2023/10/31 01:05:11;;;;;;;32.42;17.27;;;13.20;99.90;;;;;;4968908;28;20754;-71
2023/10/31 01:07:37;;;;;;;26.20;17.30;;;13.20;99.90;;;;;;4968154;28;20037;-71
2023/10/31 01:10:03;;;;;;;27.05;16.20;;;13.30;99.90;;;;;;4968178;28;20023;-70
2023/10/31 01:12:30;;;;;;;29.15;17.60;;;13.20;99.90;;;;;;4985511;28;20403;-75
2023/10/31 01:14:56;;;;;;;31.30;18.48;;;13.10;99.90;;;;;;4968771;28;20069;-70
2023/10/31 01:17:22;;;;;;;24.38;16.30;;;13.20;99.90;;;;;;4965177;28;20043;-70
2023/10/31 01:19:48;;;;;;;34.08;18.60;;;13.20;99.90;;;;;;4967365;28;20057;-71
2023/10/31 01:22:14;;;;;;;30.48;18.52;;;13.20;99.90;;;;;;4964373;28;20030;-70
2023/10/31 01:24:40;;;;;;;31.63;18.50;;;13.20;99.90;;;;;;4966957;28;20031;-72
2023/10/31 01:27:06;;;;;;;31.40;17.42;;;13.20;99.90;;;;;;4967747;28;20151;-69
2023/10/31 01:29:31;;;;;;;28.42;16.55;;;13.20;99.90;;;;;;4964767;28;20038;-71
2023/10/31 01:31:57;;;;;;;25.95;16.05;;;13.20;99.90;;;;;;4966565;28;20046;-74
2023/10/31 01:34:23;;;;;;;30.27;17.33;;;13.30;99.90;;;;;;4969310;28;20102;-70
2023/10/31 01:36:48;;;;;;;31.50;17.50;;;13.20;99.90;;;;;;4967675;28;20468;-70
2023/10/31 01:39:14;;;;;;;28.60;16.85;;;13.30;99.90;;;;;;4967004;28;20015;-70
2023/10/31 01:41:43;;;;;;;23.30;14.85;;;13.30;99.90;;;;;;4968652;28;20111;-70
2023/10/31 01:44:09;;;;;;;24.88;15.13;;;13.30;99.90;;;;;;4967676;28;20052;-71
2023/10/31 01:46:35;;;;;;;23.77;14.55;;;13.30;99.90;;;;;;4968352;28;20019;-70
2023/10/31 01:49:01;;;;;;;22.73;14.85;;;13.30;99.90;;;;;;4968002;28;20023;-71
2023/10/31 01:51:28;;;;;;;24.48;13.63;;;13.30;99.90;;;;;;4963755;28;20023;-70
2023/10/31 01:53:55;;;;;;;23.48;14.38;;;13.20;99.90;;;;;;4968629;28;20090;-72
2023/10/31 01:56:21;;;;;;;21.30;12.38;;;13.20;99.90;;;;;;4964768;28;20054;-74
2023/10/31 01:58:48;;;;;;;19.92;12.38;;;13.20;99.90;;;;;;4968349;28;20023;-72
2023/10/31 02:01:14;;;;;;;18.92;11.82;;;13.20;99.90;;;;;;4965111;28;20034;-70
2023/10/31 02:03:40;;;;;;;20.35;11.75;;;13.10;99.90;;;;;;4967660;28;20531;-70
2023/10/31 02:06:05;;;;;;;20.17;10.65;;;13.20;99.90;;;;;;4968471;28;20022;-70
2023/10/31 02:08:32;;;;;;;16.45;10.45;;;13.10;99.90;;;;;;4968740;28;20027;-70
2023/10/31 02:10:57;;;;;;;17.13;11.15;;;13.10;99.90;;;;;;4967177;28;20476;-72
2023/10/31 02:13:23;;;;;;;17.13;10.48;;;13.10;99.90;;;;;;4970514;28;20027;-70
2023/10/31 02:15:49;;;;;;;19.13;12.88;;;13.20;99.90;;;;;;4969938;28;20039;-72
2023/10/31 02:18:15;;;;;;;21.30;12.85;;;13.30;99.90;;;;;;4974165;28;20136;-70
2023/10/31 02:20:42;;;;;;;19.95;12.45;;;13.20;99.90;;;;;;4970890;28;20519;-70
2023/10/31 02:23:07;;;;;;;19.80;12.98;;;13.20;99.90;;;;;;4973931;28;20571;-70
2023/10/31 02:25:33;;;;;;;21.90;13.23;;;13.20;99.90;;;;;;4971275;28;20023;-71
2023/10/31 02:27:59;;;;;;;21.23;13.68;;;13.20;99.90;;;;;;4973590;28;20492;-70
2023/10/31 02:30:25;;;;;;;22.63;15.05;;;13.20;99.90;;;;;;4968986;28;20031;-70
2023/10/31 02:32:51;;;;;;;20.08;12.68;;;13.20;99.90;;;;;;4973406;28;20094;-69
2023/10/31 02:35:18;;;;;;;23.67;14.32;;;13.20;99.90;;;;;;4973586;28;20031;-70
2023/10/31 02:37:47;;;;;;;24.13;15.80;;;13.10;99.90;;;;;;4970753;28;20050;-69
2023/10/31 02:40:13;;;;;;;24.27;14.70;;;13.20;99.90;;;;;;4972857;28;20031;-70
2023/10/31 02:42:38;;;;;;;23.70;15.20;;;13.20;99.90;;;;;;4974042;28;20089;-70
2023/10/31 02:45:05;;;;;;;24.35;15.45;;;13.20;99.90;;;;;;4970769;28;20114;-69
2023/10/31 02:47:30;;;;;;;23.80;15.80;;;13.30;99.90;;;;;;4973433;28;20082;-69
2023/10/31 02:49:56;;;;;;;24.75;16.27;;;13.30;99.90;;;;;;4969813;28;20058;-70
2023/10/31 02:52:22;;;;;;;23.75;15.07;;;13.40;99.90;;;;;;4973807;28;20038;-71
2023/10/31 02:54:47;;;;;;;22.50;14.27;;;13.40;99.90;;;;;;4971174;28;20031;-70
2023/10/31 02:57:14;;;;;;;19.80;13.88;;;13.20;99.90;;;;;;4972704;28;20035;-70
2023/10/31 02:59:40;;;;;;;23.52;13.95;;;13.30;99.90;;;;;;4972085;28;20033;-70
2023/10/31 03:02:06;;;;;;;23.38;13.48;;;13.30;99.90;;;;;;4971655;28;20027;-70
2023/10/31 03:04:31;;;;;;;20.48;13.32;;;13.30;99.90;;;;;;4973216;28;20492;-69
2023/10/31 03:06:57;;;;;;;19.25;12.32;;;13.30;99.90;;;;;;4970169;28;20550;-70
2023/10/31 03:09:22;;;;;;;19.98;12.25;;;13.30;99.90;;;;;;4972475;28;20109;-71
2023/10/31 03:11:48;;;;;;;18.30;13.50;;;13.30;99.90;;;;;;4972253;28;20379;-70
2023/10/31 03:14:14;;;;;;;19.80;12.77;;;13.30;99.90;;;;;;4970645;28;20488;-69
2023/10/31 03:16:39;;;;;;;21.55;13.07;;;13.30;99.90;;;;;;4972680;28;20077;-70
2023/10/31 03:19:05;;;;;;;18.25;13.05;;;13.30;99.90;;;;;;4972637;28;20512;-70
2023/10/31 03:21:31;;;;;;;15.63;11.95;;;13.40;99.90;;;;;;4973527;28;20043;-69
2023/10/31 03:23:57;;;;;;;21.70;13.65;;;13.40;99.90;;;;;;4973174;28;20530;-70
2023/10/31 03:26:22;;;;;;;18.83;13.73;;;13.40;99.90;;;;;;4976679;28;20030;-70
2023/10/31 03:28:48;;;;;;;20.83;14.32;;;13.40;99.90;;;;;;4970233;28;20049;-69
2023/10/31 03:31:15;;;;;;;20.73;13.77;;;13.50;99.90;;;;;;4973024;28;20081;-71
2023/10/31 03:33:41;;;;;;;22.02;14.60;;;13.40;99.90;;;;;;4970175;28;20397;-70
2023/10/31 03:36:08;;;;;;;20.10;12.68;;;13.40;99.90;;;;;;4972632;28;20031;-70
2023/10/31 03:38:34;;;;;;;20.30;14.77;;;13.40;99.90;;;;;;4972548;28;20018;-70
2023/10/31 03:41:01;;;;;;;20.40;13.80;;;13.40;99.90;;;;;;4972656;28;20376;-69
2023/10/31 03:43:26;;;;;;;19.27;13.38;;;13.40;99.90;;;;;;4973005;28;20057;-69
2023/10/31 03:45:52;;;;;;;22.73;13.43;;;13.40;99.90;;;;;;4969544;28;20477;-70
2023/10/31 03:48:18;;;;;;;20.83;13.98;;;13.40;99.90;;;;;;4969303;28;20487;-69
2023/10/31 03:50:44;;;;;;;18.58;13.88;;;13.40;99.90;;;;;;4972840;28;20062;-69
2023/10/31 03:53:10;;;;;;;19.42;13.23;;;13.40;99.90;;;;;;4969035;28;20078;-70
2023/10/31 03:55:36;;;;;;;19.30;13.80;;;13.40;99.90;;;;;;4972119;28;20436;-69
2023/10/31 03:58:01;;;;;;;22.10;13.93;;;13.40;99.90;;;;;;4970594;28;20039;-69
2023/10/31 04:00:27;;;;;;;19.08;13.73;;;13.40;99.90;;;;;;4971901;28;20053;-69
2023/10/31 04:02:53;;;;;;;18.73;14.05;;;13.40;99.90;;;;;;4972806;28;20038;-69
2023/10/31 04:05:19;;;;;;;18.35;14.55;;;13.30;99.90;;;;;;4971042;28;20046;-71
2023/10/31 04:07:46;;;;;;;19.38;14.93;;;13.40;99.90;;;;;;4970703;28;20631;-69
2023/10/31 04:10:12;;;;;;;24.88;15.02;;;13.40;99.90;;;;;;4971231;28;20030;-69
2023/10/31 04:12:39;;;;;;;18.88;14.75;;;13.30;99.90;;;;;;4969119;28;20030;-71
2023/10/31 04:15:05;;;;;;;20.75;16.10;;;13.40;99.90;;;;;;4969407;28;20097;-70
2023/10/31 04:17:31;;;;;;;31.00;14.90;;;13.40;99.90;;;;;;4968737;28;20042;-70
2023/10/31 04:19:57;;;;;;;23.25;15.52;;;13.40;99.90;;;;;;4971709;28;20388;-69
2023/10/31 04:22:22;;;;;;;21.33;14.88;;;13.40;99.90;;;;;;4970250;28;20038;-69
2023/10/31 04:24:48;;;;;;;23.08;16.35;;;13.40;99.90;;;;;;4971021;28;20503;-70
2023/10/31 04:27:14;;;;;;;24.77;16.30;;;13.30;99.90;;;;;;4971785;28;20083;-73
2023/10/31 04:29:39;;;;;;;24.52;16.23;;;13.30;99.90;;;;;;4968662;28;20481;-70
2023/10/31 04:32:06;;;;;;;20.95;14.65;;;13.20;99.90;;;;;;4970350;28;20023;-69
2023/10/31 04:34:31;;;;;;;21.52;15.23;;;13.10;99.90;;;;;;4969348;28;20027;-70
2023/10/31 04:36:57;;;;;;;21.13;15.32;;;13.20;99.90;;;;;;4971525;28;20503;-71
2023/10/31 04:39:23;;;;;;;19.15;16.58;;;13.20;99.90;;;;;;4971018;28;20037;-72
2023/10/31 04:41:49;;;;;;;21.35;15.23;;;13.20;99.90;;;;;;4971377;28;20031;-71
2023/10/31 04:44:16;;;;;;;22.27;15.07;;;13.20;99.90;;;;;;4972094;28;20038;-70
2023/10/31 04:46:42;;;;;;;20.65;16.58;;;13.20;99.90;;;;;;4968437;28;20117;-72
2023/10/31 04:49:08;;;;;;;18.38;15.93;;;13.20;99.90;;;;;;4970950;28;20110;-70
2023/10/31 04:51:37;;;;;;;23.70;16.50;;;13.30;99.90;;;;;;4972581;28;20023;-69
2023/10/31 04:54:04;;;;;;;25.20;17.33;;;13.30;99.90;;;;;;4967779;28;20035;-70
2023/10/31 04:56:30;;;;;;;22.67;16.70;;;13.30;99.90;;;;;;4971683;28;20018;-71
2023/10/31 04:58:56;;;;;;;23.73;19.15;;;13.30;99.90;;;;;;4969466;28;20492;-70
2023/10/31 05:01:21;;;;;;;23.17;17.58;;;13.30;99.90;;;;;;4972530;28;20038;-69
2023/10/31 05:03:47;;;;;;;24.10;17.38;;;13.30;99.90;;;;;;4972684;28;20047;-70
2023/10/31 05:06:12;;;;;;;19.92;16.48;;;13.20;99.90;;;;;;4968553;28;20070;-70
2023/10/31 05:08:38;;;;;;;20.77;17.85;;;13.00;99.90;;;;;;4975763;28;20031;-71
2023/10/31 05:11:04;;;;;;;24.30;18.23;;;13.10;99.90;;;;;;4972746;28;20027;-71
2023/10/31 05:13:29;;;;;;;21.98;16.05;;;13.10;99.90;;;;;;4974270;28;20022;-70
2023/10/31 05:15:55;;;;;;;21.60;15.77;;;13.20;99.90;;;;;;4972092;28;20117;-69
2023/10/31 05:18:21;;;;;;;21.35;15.55;;;13.20;99.90;;;;;;4974493;28;20392;-76
2023/10/31 05:20:47;;;;;;;21.58;17.00;;;13.10;99.90;;;;;;4974709;28;20038;-71
2023/10/31 05:23:13;;;;;;;21.67;16.88;;;13.10;99.90;;;;;;4974774;28;20403;-70
2023/10/31 05:25:38;;;;;;;22.33;16.42;;;13.10;99.90;;;;;;4975134;28;20043;-76
2023/10/31 05:28:04;;;;;;;22.90;15.27;;;13.10;99.90;;;;;;4975191;28;20093;-70
2023/10/31 05:30:30;;;;;;;20.10;16.02;;;13.20;99.90;;;;;;4971785;28;20022;-72
2023/10/31 05:32:56;;;;;;;24.00;15.77;;;13.20;99.90;;;;;;4975157;28;20035;-78
2023/10/31 05:35:22;;;;;;;24.42;16.33;;;13.20;99.90;;;;;;4971366;28;20021;-70
2023/10/31 05:37:48;;;;;;;17.85;15.20;;;13.10;99.90;;;;;;4971453;28;20515;-73
2023/10/31 05:40:15;;;;;;;19.67;15.63;;;13.10;99.90;;;;;;4971688;28;20053;-70
2023/10/31 05:42:41;;;;;;;20.42;15.65;;;13.10;99.90;;;;;;4973928;28;20746;-71
2023/10/31 05:45:07;;;;;;;21.48;16.27;;;13.10;99.90;;;;;;4973677;28;20029;-72
2023/10/31 05:47:33;;;;;;;20.48;15.38;;;13.20;99.90;;;;;;4972085;28;20105;-71
2023/10/31 05:49:59;;;;;;;20.30;16.35;;;13.10;99.90;;;;;;4974485;28;20106;-73
2023/10/31 05:52:29;;;;;;;22.60;17.33;;;13.10;99.90;;;;;;4974741;28;20026;-76
2023/10/31 05:54:55;;;;;;;23.90;17.52;;;13.20;99.90;;;;;;4968105;28;20019;-72
2023/10/31 05:57:21;;;;;;;24.13;16.75;;;13.10;99.90;;;;;;4973926;28;20030;-70
2023/10/31 05:59:47;;;;;;;25.25;17.27;;;13.10;99.90;;;;;;4974537;28;20357;-70
2023/10/31 06:02:13;;;;;;;25.95;17.90;;;13.00;99.90;;;;;;4973579;28;20531;-71
2023/10/31 06:04:39;;;;;;;26.67;17.98;;;13.00;99.90;;;;;;4970718;28;20054;-69
2023/10/31 06:07:06;;;;;;;24.90;18.00;;;13.00;99.90;;;;;;4973358;28;20027;-69
2023/10/31 06:09:35;;;;;;;25.40;18.27;;;12.90;99.90;;;;;;4969692;28;20110;-75
2023/10/31 06:12:01;;;;;;;21.83;17.80;;;12.70;99.90;;;;;;4973603;28;20097;-70
2023/10/31 06:14:26;;;;;;;22.58;16.83;;;12.70;99.90;;;;;;4972502;28;20113;-73
2023/10/31 06:16:52;;;;;;;23.83;17.88;;;12.70;99.90;;;;;;4971870;28;20049;-75
2023/10/31 06:19:18;;;;;;;26.30;17.83;;;12.80;99.90;;;;;;4969109;28;20046;-71
2023/10/31 06:21:44;;;;;;;24.52;17.77;;;12.80;99.90;;;;;;4973624;28;20035;-70
2023/10/31 06:24:10;;;;;;;18.48;14.52;;;12.80;99.90;;;;;;4974414;28;20369;-72
2023/10/31 06:26:35;;;;;;;24.27;16.30;;;12.80;99.90;;;;;;4973444;28;20054;-72
2023/10/31 06:29:01;;;;;;;21.25;15.63;;;12.80;99.90;;;;;;4971505;28;20074;-72
2023/10/31 06:31:27;;;;;;;21.13;14.80;;;12.80;99.90;;;;;;4973026;28;20102;-70
2023/10/31 06:33:53;;;;;;;20.23;14.93;;;12.80;99.90;;;;;;4972485;28;20030;-72
2023/10/31 06:36:18;;;;;;;21.42;15.32;;;12.80;99.90;;;;;;4972810;28;20500;-73
2023/10/31 06:38:44;;;;;;;18.95;14.82;;;12.80;99.90;;;;;;4973287;28;20030;-72
2023/10/31 06:41:10;;;;;;;16.90;13.25;;;12.80;99.90;;;;;;4971027;28;20026;-72
2023/10/31 06:43:38;;;;;;;20.17;14.25;;;12.70;99.90;;;;;;4977172;28;20447;-71
2023/10/31 06:46:05;;;;;;;21.92;15.15;;;12.70;99.90;;;;;;4973152;28;20570;-75
2023/10/31 06:48:30;;;;;;;22.30;15.23;;;12.70;99.90;;;;;;4970185;28;20030;-73
2023/10/31 06:50:56;;;;;;;18.83;14.38;;;12.80;99.90;;;;;;4985507;28;20037;-72
2023/10/31 06:53:22;;;;;;;20.70;13.93;;;12.80;99.90;;;;;;4973373;28;20027;-72
2023/10/31 06:55:48;;;;;;;21.65;16.33;;;12.80;99.90;;;;;;4970593;28;20514;-73
2023/10/31 06:58:14;;;;;;;23.33;15.45;;;12.80;99.90;;;;;;4972699;28;20023;-73
2023/10/31 07:00:40;;;;;;;22.15;15.15;;;12.80;99.90;;;;;;4973481;28;20019;-70
2023/10/31 07:03:09;;;;;;;20.45;15.27;;;12.80;99.90;;;;;;4970392;28;20053;-70
2023/10/31 07:05:40;;;;;;;23.55;15.10;;;12.80;99.90;;;;;;4973566;28;20022;-73
2023/10/31 07:08:05;;;;;;;19.67;15.05;;;12.90;99.90;;;;;;4973599;28;20042;-70
2023/10/31 07:10:31;;;;;;;21.08;16.55;;;12.90;99.90;;;;;;4971867;28;20496;-73
2023/10/31 07:12:58;;;;;;;24.75;17.17;;;12.80;99.90;;;;;;4972959;28;20022;-76
2023/10/31 07:15:27;;;;;;;22.80;16.45;;;12.80;99.90;;;;;;4970269;28;20035;-70
2023/10/31 07:17:52;;;;;;;25.95;17.92;;;12.80;99.90;;;;;;4970239;28;20027;-74
2023/10/31 07:20:18;;;;;;;29.05;17.85;;;12.80;99.90;;;;;;4973603;28;20073;-76
2023/10/31 07:22:44;;;;;;;26.20;18.05;;;12.80;99.90;;;;;;4971772;28;20069;-70
2023/10/31 07:25:10;;;;;;;27.73;18.48;;;12.70;99.90;;;;;;4971697;28;20027;-71
2023/10/31 07:27:36;;;;;;;24.63;18.25;;;12.70;99.90;;;;;;4969045;28;20145;-72
2023/10/31 07:30:03;;;;;;;25.17;17.75;;;12.70;99.90;;;;;;4972435;28;22103;-74
2023/10/31 07:32:29;;;;;;;32.03;19.05;;;12.70;99.90;;;;;;4973385;28;20031;-73
2023/10/31 07:34:55;;;;;;;27.52;19.00;;;12.70;99.90;;;;;;4969712;28;20056;-72
2023/10/31 07:37:21;;;;;;;29.45;19.55;;;12.60;99.90;;;;;;4971122;28;20019;-76
2023/10/31 07:39:46;;;;;;;35.10;22.02;;;12.70;99.90;;;;;;4968719;28;20113;-77
2023/10/31 07:42:12;;;;;;;26.95;17.98;;;12.70;99.90;;;;;;4971809;28;20047;-73
2023/10/31 07:44:37;;;;;;;29.30;19.23;;;12.70;99.90;;;;;;4969639;28;20867;-74
2023/10/31 07:47:03;;;;;;;29.13;19.88;;;12.60;99.90;;;;;;4967361;28;20554;-74
2023/10/31 07:49:30;;;;;;;29.45;18.48;;;12.70;99.90;;;;;;4969442;28;20043;-72
2023/10/31 07:51:56;;;;;;;30.15;19.63;;;12.70;99.90;;;;;;4969969;28;20027;-71
2023/10/31 07:54:22;;;;;;;29.75;19.13;;;12.70;99.90;;;;;;4971134;28;20035;-73
2023/10/31 07:56:47;;;;;;;25.13;17.85;;;12.80;99.90;;;;;;4969340;28;20023;-71
2023/10/31 07:59:13;;;;;;;30.90;19.77;;;12.80;99.90;;;;;;4972672;28;20738;-72
2023/10/31 08:01:38;;;;;;;27.17;19.33;;;12.80;99.90;;;;;;4965834;28;20026;-73
2023/10/31 08:04:04;;;;;;;31.33;19.15;;;12.90;99.90;;;;;;4972291;28;20106;-71
2023/10/31 08:06:30;;;;;;;31.92;19.27;;;12.90;99.90;;;;;;4973078;28;20024;-75
2023/10/31 08:08:56;;;;;;;35.28;20.00;;;12.90;99.90;;;;;;4983638;28;20119;-73
2023/10/31 08:11:21;;;;;;;28.55;18.50;;;13.00;99.90;;;;;;4972204;28;20503;-69
2023/10/31 08:13:47;;;;;;;31.25;20.38;;;12.80;99.90;;;;;;4972293;28;20731;-71
2023/10/31 08:16:20;;;;;;;33.53;19.50;;;12.90;99.90;;;;;;4962132;28;20118;-71
2023/10/31 08:18:46;;;;;;;30.55;19.60;;;13.00;99.90;;;;;;4971014;28;20027;-69
2023/10/31 08:21:12;;;;;;;30.83;19.02;;;13.10;99.90;;;;;;4971728;28;20082;-72
2023/10/31 08:23:38;;;;;;;31.60;20.02;;;13.00;99.90;;;;;;4968877;28;20799;-70
2023/10/31 08:26:04;;;;;;;30.15;20.70;;;13.10;99.90;;;;;;4972351;28;20109;-71
2023/10/31 08:28:30;;;;;;;29.02;19.13;;;13.10;99.90;;;;;;4970020;28;20122;-71
2023/10/31 08:30:56;;;;;;;32.15;20.13;;;13.10;99.90;;;;;;4971549;28;20038;-72
2023/10/31 08:33:22;;;;;;;28.83;18.40;;;13.10;99.90;;;;;;4970985;28;20034;-70
2023/10/31 08:35:48;;;;;;;27.42;17.65;;;13.10;99.90;;;;;;4972424;28;20031;-73
2023/10/31 08:38:14;;;;;;;28.98;18.90;;;13.10;99.90;;;;;;4974448;28;20365;-74
2023/10/31 08:40:40;;;;;;;32.47;17.60;;;13.10;99.90;;;;;;4973166;28;20030;-73
2023/10/31 08:43:06;;;;;;;26.27;15.88;;;13.10;99.90;;;;;;4975606;28;20435;-70
2023/10/31 08:45:33;;;;;;;28.63;17.70;;;13.20;99.90;;;;;;4975520;28;20034;-69
2023/10/31 08:47:59;;;;;;;26.77;17.63;;;13.30;99.90;;;;;;4976086;28;20042;-73
2023/10/31 08:50:25;;;;;;;27.10;17.30;;;13.30;99.90;;;;;;4975726;28;20054;-71
2023/10/31 08:52:51;;;;;;;24.98;16.42;;;13.40;99.90;;;;;;4975281;28;20057;-70
2023/10/31 08:55:17;;;;;;;28.27;17.42;;;13.40;99.90;;;;;;4976166;28;20106;-71
2023/10/31 08:57:42;;;;;;;25.58;16.10;;;13.40;99.90;;;;;;4974832;28;20027;-70
2023/10/31 09:00:08;;;;;;;25.35;16.63;;;13.40;99.90;;;;;;4987486;28;20027;-71
2023/10/31 09:02:34;;;;;;;20.88;14.88;;;13.50;99.90;;;;;;4975431;28;20491;-70
2023/10/31 09:05:00;;;;;;;20.15;14.57;;;13.50;99.90;;;;;;4972580;28;20030;-71
2023/10/31 09:07:25;;;;;;;23.65;14.45;;;13.40;99.90;;;;;;4974080;28;20015;-69
2023/10/31 09:09:51;;;;;;;22.02;15.07;;;13.40;99.90;;;;;;4974587;28;20027;-71
2023/10/31 09:12:17;;;;;;;21.05;14.90;;;13.50;99.90;;;;;;4974745;28;20463;-70
2023/10/31 09:14:42;;;;;;;25.25;15.07;;;13.50;99.90;;;;;;4971787;28;20033;-70
2023/10/31 09:17:08;;;;;;;25.13;15.90;;;13.40;99.90;;;;;;4974500;28;20058;-70
2023/10/31 09:19:34;;;;;;;22.20;15.18;;;13.50;99.90;;;;;;4972417;28;20053;-72
2023/10/31 09:21:59;;;;;;;22.75;15.55;;;13.60;99.90;;;;;;4971032;28;20030;-70
2023/10/31 09:24:25;;;;;;;24.30;14.05;;;13.60;99.90;;;;;;4974158;28;20449;-71
2023/10/31 09:26:51;;;;;;;20.55;14.07;;;13.50;99.90;;;;;;4975647;28;20019;-73
2023/10/31 09:29:17;;;;;;;24.42;15.52;;;13.50;99.90;;;;;;4974675;28;20027;-70
2023/10/31 09:31:42;;;;;;;22.73;14.10;;;13.60;99.90;;;;;;4972397;28;20034;-75
2023/10/31 09:34:09;;;;;;;22.92;14.68;;;13.50;99.90;;;;;;4973498;28;20028;-70
2023/10/31 09:36:35;;;;;;;21.83;15.57;;;13.50;99.90;;;;;;4972493;28;20019;-73
2023/10/31 09:39:01;;;;;;;21.17;13.73;;;13.50;99.90;;;;;;4973138;28;20113;-73
2023/10/31 09:41:27;;;;;;;23.65;14.32;;;13.60;99.90;;;;;;4972172;28;20536;-74
2023/10/31 09:43:54;;;;;;;21.40;12.27;;;13.50;99.90;;;;;;4971601;28;20093;-71
2023/10/31 09:46:21;;;;;;;19.33;13.82;;;13.50;99.90;;;;;;4971549;28;20384;-70
2023/10/31 09:48:47;;;;;;;19.17;11.82;;;13.60;99.90;;;;;;4972786;28;20030;-71
2023/10/31 09:51:14;;;;;;;19.58;12.68;;;13.50;99.90;;;;;;4972443;28;20027;-69
2023/10/31 09:53:41;;;;;;;17.67;12.63;;;13.60;99.90;;;;;;4972799;28;20031;-70
2023/10/31 09:56:07;;;;;;;17.77;12.40;;;13.60;99.90;;;;;;4970599;28;20495;-73
2023/10/31 09:58:34;;;;;;;19.80;11.95;;;13.60;99.90;;;;;;4973325;28;20077;-74
2023/10/31 10:01:00;;;;;;;16.27;12.00;;;13.70;99.90;;;;;;4970017;28;20034;-74
2023/10/31 10:03:26;;;;;;;16.13;10.93;;;13.70;99.90;;;;;;4973558;28;20456;-71
2023/10/31 10:05:52;;;;;;;16.02;11.10;;;13.70;99.90;;;;;;4973885;28;20027;-72
2023/10/31 10:08:19;;;;;;;18.65;10.40;;;13.70;99.90;;;;;;4974406;28;20034;-70
2023/10/31 10:10:44;;;;;;;15.65;11.20;;;13.80;99.90;;;;;;4972472;28;20127;-71
2023/10/31 10:13:12;;;;;;;16.02;10.55;;;13.90;99.90;;;;;;4972821;28;20110;-71
2023/10/31 10:15:54;;;;;;;14.23;9.18;;;13.90;99.90;;;;;;4971408;28;20085;-71
2023/10/31 10:18:35;;;;;;;12.52;9.43;;;14.00;99.90;;;;;;4956475;28;20070;-70
2023/10/31 10:21:04;;;;;;;13.55;8.77;;;14.00;99.90;;;;;;4963643;28;20058;-72
2023/10/31 10:23:31;;;;;;;13.13;9.07;;;14.10;99.90;;;;;;4966617;28;20549;-73
2023/10/31 10:25:58;;;;;;;12.38;8.75;;;14.10;99.90;;;;;;4967570;28;20023;-69
2023/10/31 10:28:26;;;;;;;12.07;8.05;;;14.20;99.90;;;;;;4967152;28;20027;-70
2023/10/31 10:30:53;;;;;;;12.55;8.65;;;14.30;99.90;;;;;;4967425;28;20036;-71
2023/10/31 10:33:20;;;;;;;11.82;8.52;;;14.30;99.90;;;;;;4968181;28;20077;-73
2023/10/31 10:35:46;;;;;;;14.70;8.95;;;14.20;99.90;;;;;;4965231;28;20033;-73
2023/10/31 10:38:14;;;;;;;9.35;8.43;;;14.30;99.90;;;;;;4966640;28;20038;-70
2023/10/31 10:40:46;;;;;;;9.68;7.15;;;14.30;99.90;;;;;;4966625;28;20023;-71
2023/10/31 10:43:26;;;;;;;10.43;7.73;;;14.30;99.90;;;;;;4967364;28;20418;-74
2023/10/31 10:45:57;;;;;;;8.13;6.47;;;14.30;99.90;;;;;;4966660;28;20033;-70
2023/10/31 10:48:25;;;;;;;7.68;6.38;;;14.30;99.90;;;;;;4963143;28;20038;-74
2023/10/31 10:51:07;;;;;;;7.65;5.47;;;14.40;99.90;;;;;;4966999;28;20118;-71
2023/10/31 10:53:49;;;;;;;6.50;5.65;;;14.50;99.90;;;;;;4965157;28;20047;-71
2023/10/31 10:56:25;;;;;;;7.55;5.13;;;14.60;99.90;;;;;;4963849;28;20142;-75
2023/10/31 10:58:53;;;;;;;6.28;4.82;;;14.70;99.90;;;;;;4963480;28;20057;-74
2023/10/31 11:01:19;;;;;;;8.85;5.25;;;14.70;99.90;;;;;;4967131;28;20029;-70
2023/10/31 11:03:46;;;;;;;8.13;4.78;;;14.70;99.90;;;;;;4965692;28;20077;-75
2023/10/31 11:06:13;;;;;;;5.32;4.32;;;14.60;99.90;;;;;;4967896;28;20958;-69
2023/10/31 11:08:41;;;;;;;8.80;3.95;;;14.70;99.90;;;;;;4966690;28;20027;-72
2023/10/31 11:11:06;;;;;;;4.88;3.85;;;14.80;99.90;;;;;;4967199;28;20026;-70
2023/10/31 11:13:32;;;;;;;8.48;4.25;;;14.70;99.90;;;;;;4964007;28;20022;-69
2023/10/31 11:16:05;;;;;;;5.47;4.38;;;14.70;99.90;;;;;;4966475;28;20660;-72
2023/10/31 11:18:31;;;;;;;;;;;14.60;99.90;;;;;;4964967;28;20101;-71
2023/10/31 11:20:57;;;;;;;4.70;3.50;;;14.60;99.90;;;;;;4965288;28;20351;-70
2023/10/31 11:23:22;;;;;;;7.38;4.00;;;14.80;99.90;;;;;;4968311;28;20372;-74
2023/10/31 11:25:52;;;;;;;6.80;3.88;;;14.80;99.90;;;;;;4964073;28;20113;-75
2023/10/31 11:28:18;;;;;;;8.55;4.15;;;14.70;99.90;;;;;;4965841;28;20015;-70
2023/10/31 11:30:47;;;;;;;4.43;3.80;;;14.80;99.90;;;;;;4966834;28;20101;-71
2023/10/31 11:33:15;;;;;;;5.05;3.47;;;14.70;99.90;;;;;;4966031;28;20027;-72
2023/10/31 11:35:41;;;;;;;10.18;3.95;;;14.70;99.90;;;;;;4963134;28;20011;-75
2023/10/31 11:38:10;;;;;;;5.05;3.22;;;14.80;99.90;;;;;;4964565;28;22695;-74
2023/10/31 11:40:37;;;;;;;7.35;3.58;;;14.80;99.90;;;;;;4963589;28;20015;-75
2023/10/31 11:43:05;;;;;;;6.65;3.47;;;14.80;99.90;;;;;;4966355;28;20427;-71
2023/10/31 11:45:41;;;;;;;5.03;3.35;;;14.90;99.90;;;;;;4964318;28;20102;-70
2023/10/31 11:48:08;;;;;;;5.20;3.47;;;14.90;99.90;;;;;;4979796;28;20034;-73
2023/10/31 11:50:34;;;;;;;31.63;15.57;;;14.80;99.90;;;;;;4966756;28;20027;-74
2023/10/31 11:53:07;;;;;;;7.30;4.43;;;14.90;99.90;;;;;;4966104;28;20255;-70
2023/10/31 11:55:41;;;;;;;15.65;6.57;;;14.90;99.90;;;;;;4962817;28;20026;-76
2023/10/31 11:58:25;;;;;;;10.57;5.13;;;14.90;99.90;;;;;;4965059;28;20384;-71
2023/10/31 12:00:52;;;;;;;9.15;4.25;;;14.90;99.90;;;;;;4963880;28;20432;-73
2023/10/31 12:03:20;;;;;;;8.35;4.80;;;14.90;99.90;;;;;;4967881;28;20456;-70
2023/10/31 12:05:56;;;;;;;7.95;4.45;;;15.00;99.90;;;;;;4965592;28;20027;-71
2023/10/31 12:08:33;;;;;;;7.05;3.70;;;15.00;99.90;;;;;;4964065;28;20024;-73
2023/10/31 12:11:17;;;;;;;6.30;3.38;;;15.10;99.90;;;;;;4968209;28;20472;-70
2023/10/31 12:14:04;;;;;;;5.28;2.80;;;15.10;99.90;;;;;;4969881;28;20034;-75
2023/10/31 12:16:32;;;;;;;6.68;3.40;;;15.10;99.90;;;;;;4968949;28;20572;-76
2023/10/31 12:18:59;;;;;;;2.67;2.00;;;15.00;99.90;;;;;;4967924;28;20055;-72
2023/10/31 12:21:56;;;;;;;5.63;2.25;;;14.90;99.90;;;;;;4969702;28;20026;-71
2023/10/31 12:24:21;;;;;;;4.28;2.45;;;14.80;99.90;;;;;;4958778;28;20083;-73
2023/10/31 12:26:47;;;;;;;5.18;2.20;;;14.80;99.90;;;;;;4969813;28;20532;-73
2023/10/31 12:29:18;;;;;;;4.95;3.30;;;14.90;99.90;;;;;;4966830;28;20031;-75